Portada
METAR-TAF:

METAR-TAF

Aeroports :

Aeroport de Tolosa-Blagnac

Tolosa, França

latitud: 43-38N, longitud: 001-22E, altitud: 152 m

Observació

L'informe es va fer fa 32 minuts, a les 13:30 UTC
Vent 12 kt del Oest/Nord-Oest
Temperatura 23°C
Humitat 44%
Pressió 1023 hPa
Visibilitat 10 km o més
sense núvols per sota de 1500 mi sense presència de cumulonimbus.

METAR: LFBO 031330Z AUTO 30012KT CAVOK 23/10 Q1023 NOSIG

Hora: 16:02 (14:02 UTC)

Pronòstic

L'informe es va fer fa 3 hores i 2 minuts, a les 11:00 UTC
Pronòstic vàlid del 03 a les 12 UTC al 04 a les 18 UTC
Vent 12 kt del Nord-Oest
Visibilitat 10 km o més
sense núvols per sota de 1500 mi sense presència de cumulonimbus.
Temporalment
l' 04 a les 00 UTC al 04 a les 06 UTC
Vent 2 kt amb direcció variable

TAF: LFBO 031100Z 0312/0418 31012KT CAVOK TEMPO 0400/0406 VRB02KT

Observacions i pronòstics meteorològics de més de 4000 aeroports (METAR i TAF).

Les estacions disponibles són els punts grocs i vermells al mapa.

Posi el ratolí al punt desitjat per veure el nom de l'estació.

Feu clic per veure les observacions i els pronòstics meteorològics.

Per canviar el mapa: feu clic els botons verds amb una creu de color negre per apropar; al botó verd amb un guió per allunyar la imatge; o en les fletxes verdes per a mapes adjacents.


METAR-TAF: